createdAt,value
2023-01-09T00:01:38.658Z,67.82
2023-01-09T00:06:33.158Z,78.97
2023-01-09T00:11:27.356Z,72.47
2023-01-09T00:16:21.361Z,70.57
2023-01-09T00:21:15.960Z,75.00
2023-01-09T00:26:18.733Z,70.38
2023-01-09T00:31:14.054Z,65.75
2023-01-09T00:36:10.026Z,63.03
2023-01-09T00:41:04.588Z,57.63
2023-01-09T00:45:59.623Z,51.17
2023-01-09T00:50:53.939Z,47.35
2023-01-09T00:55:47.836Z,41.97
2023-01-09T01:00:41.759Z,31.42
2023-01-09T01:05:54.028Z,33.40
2023-01-09T01:10:49.038Z,33.95
2023-01-09T01:15:44.225Z,28.02
2023-01-09T01:20:38.193Z,30.95
2023-01-09T01:25:31.834Z,30.98
2023-01-09T01:30:27.687Z,29.65
2023-01-09T01:35:20.953Z,32.83
2023-01-09T01:45:15.597Z,46.47
2023-01-09T01:50:37.473Z,56.05
2023-01-09T01:55:31.729Z,54.25
2023-01-09T02:00:31.793Z,41.40
2023-01-09T02:05:25.878Z,38.08
2023-01-09T02:10:23.850Z,37.35
2023-01-09T02:15:17.476Z,23.98
2023-01-09T02:20:39.066Z,24.88
2023-01-09T02:25:50.850Z,23.48
2023-01-09T02:30:50.236Z,20.77
2023-01-09T02:36:06.254Z,22.10
2023-01-09T02:41:09.577Z,19.52
2023-01-09T02:55:56.299Z,24.88
2023-01-09T03:01:16.565Z,24.92
2023-01-09T03:06:26.416Z,26.65
2023-01-09T03:11:22.650Z,24.48
2023-01-09T03:16:20.979Z,25.45
2023-01-09T03:21:14.800Z,24.73
2023-01-09T03:31:05.232Z,22.15
2023-01-09T03:35:59.306Z,23.67
2023-01-09T03:40:53.142Z,22.02
2023-01-09T03:45:46.637Z,24.17
2023-01-09T03:50:43.060Z,22.67
2023-01-09T03:55:37.385Z,25.63
2023-01-09T04:00:31.921Z,26.40
2023-01-09T04:05:26.296Z,20.25
2023-01-09T04:10:20.551Z,19.30
2023-01-09T04:15:14.190Z,18.45
2023-01-09T04:20:11.451Z,18.58
2023-01-09T04:25:07.688Z,19.25
2023-01-09T04:30:01.300Z,17.42
2023-01-09T04:39:50.144Z,13.18
2023-01-09T04:44:43.722Z,12.93
2023-01-09T04:49:36.982Z,13.45
2023-01-09T04:54:30.862Z,11.25
2023-01-09T05:04:17.902Z,9.37
2023-01-09T05:09:11.486Z,8.93
2023-01-09T05:14:05.547Z,8.60
2023-01-09T05:19:01.355Z,7.85
2023-01-09T05:23:54.818Z,6.82
2023-01-09T05:28:48.449Z,6.25
2023-01-09T05:38:39.832Z,5.40
2023-01-09T05:43:34.255Z,5.75
2023-01-09T05:48:28.431Z,6.90
2023-01-09T05:58:15.577Z,7.18
2023-01-09T06:03:09.897Z,7.75
2023-01-09T06:08:07.668Z,8.25
2023-01-09T06:13:01.956Z,8.18
2023-01-09T06:17:56.049Z,7.43
2023-01-09T06:22:52.520Z,6.50
2023-01-09T06:27:46.735Z,7.10
2023-01-09T06:32:41.023Z,9.43
2023-01-09T06:37:34.931Z,8.05
2023-01-09T06:42:29.277Z,6.82
2023-01-09T06:47:24.248Z,8.00
2023-01-09T06:52:18.829Z,8.75
2023-01-09T06:57:14.592Z,8.38
2023-01-09T07:02:10.610Z,8.57
2023-01-09T07:07:03.977Z,14.25
2023-01-09T07:11:57.365Z,10.57
2023-01-09T07:16:50.901Z,9.35
2023-01-09T07:21:44.416Z,11.88
2023-01-09T07:26:38.413Z,11.80
2023-01-09T07:36:25.784Z,14.52
2023-01-09T07:41:19.271Z,20.90
2023-01-09T07:51:06.797Z,17.67
2023-01-09T07:56:00.705Z,22.67
2023-01-09T08:00:54.578Z,23.88
2023-01-09T08:05:51.228Z,9.00
2023-01-09T08:10:45.212Z,8.68
2023-01-09T08:20:32.538Z,9.05
2023-01-09T08:25:26.500Z,9.30
2023-01-09T08:30:19.985Z,11.63
2023-01-09T08:35:14.188Z,8.50
2023-01-09T08:40:11.022Z,9.52
2023-01-09T08:45:24.904Z,10.30
2023-01-09T08:50:19.240Z,11.93
2023-01-09T08:55:13.260Z,10.70
2023-01-09T09:00:08.907Z,13.00
2023-01-09T09:05:02.761Z,12.85
2023-01-09T09:09:55.707Z,13.30
2023-01-09T09:20:01.392Z,58.88
2023-01-09T09:24:55.743Z,20.00
2023-01-09T09:29:49.361Z,63.38
2023-01-09T09:34:43.162Z,49.55
2023-01-09T09:39:36.389Z,93.28
2023-01-09T09:44:57.038Z,228.18
2023-01-09T09:50:21.954Z,113.38
2023-01-09T09:55:48.262Z,91.10
2023-01-09T10:00:42.592Z,48.20
2023-01-09T10:05:38.602Z,46.70
2023-01-09T10:10:40.576Z,15.40
2023-01-09T10:15:46.977Z,16.90
2023-01-09T10:21:03.162Z,14.60
2023-01-09T10:26:00.457Z,25.60
2023-01-09T10:31:27.342Z,33.67
2023-01-09T10:36:29.357Z,29.05
2023-01-09T10:41:33.841Z,18.95
2023-01-09T10:46:31.244Z,27.75
2023-01-09T10:51:48.971Z,224.55
2023-01-09T10:56:46.971Z,244.63
2023-01-09T11:01:44.083Z,23.70
2023-01-09T11:06:49.827Z,32.67
2023-01-09T11:11:46.164Z,29.52
2023-01-09T11:16:43.713Z,21.15
2023-01-09T11:21:41.251Z,22.65
2023-01-09T11:26:36.267Z,36.75
2023-01-09T11:31:30.448Z,21.33
2023-01-09T11:36:27.583Z,20.92
2023-01-09T11:41:33.482Z,20.55
2023-01-09T11:46:36.163Z,21.35
2023-01-09T11:51:34.564Z,22.00
2023-01-09T11:56:29.198Z,18.63
2023-01-09T12:01:40.908Z,18.02
2023-01-09T12:06:56.827Z,30.42
2023-01-09T12:11:57.597Z,50.35
2023-01-09T12:16:59.591Z,512.30
2023-01-09T12:22:29.576Z,227.18
2023-01-09T12:27:26.845Z,138.35
2023-01-09T12:33:00.632Z,29.45
2023-01-09T12:43:24.355Z,200.30
2023-01-09T12:48:32.968Z,76.43
2023-01-09T12:53:39.590Z,58.70
2023-01-09T12:58:43.827Z,190.07
2023-01-09T13:04:06.619Z,80.53
2023-01-09T13:09:32.369Z,113.38
2023-01-09T13:15:06.967Z,13.65
2023-01-09T13:20:01.488Z,28.52
2023-01-09T13:25:07.015Z,17.45
2023-01-09T13:30:41.281Z,33.88
2023-01-09T13:35:54.157Z,12.85
2023-01-09T13:41:31.494Z,16.50
2023-01-09T13:46:37.479Z,12.80
2023-01-09T13:51:43.772Z,11.93
2023-01-09T13:57:14.192Z,13.80
2023-01-09T14:02:36.130Z,10.43
2023-01-09T14:07:31.478Z,10.93
2023-01-09T14:12:24.748Z,11.07
2023-01-09T14:17:38.340Z,10.07
2023-01-09T14:22:42.437Z,9.88
2023-01-09T14:28:30.205Z,9.43
2023-01-09T14:33:24.328Z,11.02
2023-01-09T14:38:39.771Z,10.68
2023-01-09T14:43:49.134Z,9.98
2023-01-09T14:48:56.211Z,9.63
2023-01-09T14:53:52.255Z,11.50
2023-01-09T14:58:46.603Z,10.52
2023-01-09T15:03:43.493Z,11.90
2023-01-09T15:08:37.755Z,10.23
2023-01-09T15:13:38.345Z,13.00
2023-01-09T15:18:34.537Z,10.50
2023-01-09T15:23:31.247Z,15.32
2023-01-09T15:28:35.428Z,14.27
2023-01-09T15:33:28.929Z,38.90
2023-01-09T15:38:23.915Z,16.65
2023-01-09T15:43:37.413Z,120.65
2023-01-09T15:48:36.584Z,402.88
2023-01-09T15:53:30.348Z,330.27
2023-01-09T15:58:31.590Z,245.80
2023-01-09T16:03:25.596Z,260.33
2023-01-09T16:08:27.355Z,93.38
2023-01-09T16:13:23.057Z,28.33
2023-01-09T16:18:18.453Z,24.52
2023-01-09T16:23:35.893Z,23.90
2023-01-09T16:28:31.326Z,27.02
2023-01-09T16:33:26.296Z,20.80
2023-01-09T16:38:20.079Z,26.92
2023-01-09T16:43:16.143Z,29.23
2023-01-09T16:48:17.816Z,19.88
2023-01-09T16:53:18.141Z,20.35
2023-01-09T16:58:25.885Z,18.80
2023-01-09T17:03:21.249Z,19.45
2023-01-09T17:08:38.042Z,19.83
2023-01-09T17:13:31.396Z,20.90
2023-01-09T17:18:27.540Z,21.50
2023-01-09T17:23:23.806Z,20.42
2023-01-09T17:28:35.206Z,20.25
2023-01-09T17:33:30.062Z,19.20
2023-01-09T17:38:28.106Z,21.42
2023-01-09T17:43:22.693Z,18.33
2023-01-09T17:48:21.506Z,33.35
2023-01-09T17:53:18.287Z,25.63
2023-01-09T17:58:26.328Z,25.27
2023-01-09T18:03:21.193Z,23.65
2023-01-09T18:08:19.264Z,26.35
2023-01-09T18:13:13.262Z,29.08
2023-01-09T18:18:06.889Z,29.10
2023-01-09T18:23:00.334Z,28.30
2023-01-09T18:27:54.616Z,29.80
2023-01-09T18:32:48.258Z,34.17
2023-01-09T18:37:41.910Z,38.22
2023-01-09T18:42:34.996Z,35.88
2023-01-09T18:52:23.943Z,34.28
2023-01-09T18:57:19.004Z,37.67
2023-01-09T19:02:26.058Z,34.47
2023-01-09T19:07:19.843Z,29.42
2023-01-09T19:12:14.014Z,33.13
2023-01-09T19:17:07.755Z,32.08
2023-01-09T19:22:01.274Z,29.83
2023-01-09T19:26:54.925Z,43.83
2023-01-09T19:36:45.296Z,41.78
2023-01-09T19:41:40.881Z,37.22
2023-01-09T19:46:35.973Z,38.40
2023-01-09T19:51:30.091Z,30.58
2023-01-09T19:56:24.207Z,27.70
2023-01-09T20:01:24.572Z,25.55
2023-01-09T20:06:24.496Z,33.70
2023-01-09T20:11:18.407Z,35.22
2023-01-09T20:16:21.760Z,30.40
2023-01-09T20:21:19.933Z,26.88
2023-01-09T20:26:15.415Z,31.48
2023-01-09T20:31:11.675Z,33.85
2023-01-09T20:36:07.822Z,32.53
2023-01-09T20:41:12.208Z,39.67
2023-01-09T20:46:07.131Z,41.65
2023-01-09T20:51:06.684Z,44.95
2023-01-09T20:56:27.343Z,39.70
2023-01-09T21:01:23.216Z,37.22
2023-01-09T21:06:18.350Z,33.08
2023-01-09T21:11:12.740Z,32.58
2023-01-09T21:16:15.260Z,29.60
2023-01-09T21:21:12.711Z,31.05
2023-01-09T21:26:10.630Z,31.23
2023-01-09T21:31:04.966Z,31.45
2023-01-09T21:35:59.121Z,32.95
2023-01-09T21:40:53.219Z,36.15
2023-01-09T21:46:05.372Z,42.55
2023-01-09T21:51:03.704Z,40.88
2023-01-09T21:55:58.074Z,34.28
2023-01-09T22:01:01.103Z,32.28
2023-01-09T22:05:54.674Z,31.43
2023-01-09T22:10:55.879Z,30.85
2023-01-09T22:15:49.888Z,31.23
2023-01-09T22:20:43.821Z,23.25
2023-01-09T22:25:38.911Z,23.20
2023-01-09T22:30:33.077Z,25.45
2023-01-09T22:40:20.320Z,29.77
2023-01-09T22:45:15.127Z,26.42
2023-01-09T22:50:11.898Z,28.42
2023-01-09T22:55:05.891Z,17.67
2023-01-09T23:00:00.297Z,14.10
2023-01-09T23:04:55.249Z,11.82
2023-01-09T23:09:48.431Z,11.77
2023-01-09T23:14:42.059Z,13.20
2023-01-09T23:24:29.578Z,16.02
2023-01-09T23:29:25.033Z,19.90
2023-01-09T23:34:19.875Z,17.65
2023-01-09T23:39:13.841Z,15.90
2023-01-09T23:44:07.213Z,13.88
2023-01-09T23:49:00.613Z,18.38
2023-01-09T23:53:54.536Z,15.63
2023-01-09T23:58:48.249Z,11.90
